sensor_id;sensor_type;location;lat;lon;timestamp;pressure;altitude;pressure_sealevel;temperature;humidity
1207;BME280;593;53.184;8.216;2024-03-25T00:01:11;99933.69;;;8.58;100.00
1207;BME280;593;53.184;8.216;2024-03-25T00:03:37;99938.88;;;8.55;100.00
1207;BME280;593;53.184;8.216;2024-03-25T00:06:02;99944.84;;;8.57;100.00
1207;BME280;593;53.184;8.216;2024-03-25T00:08:27;99939.41;;;8.57;100.00
1207;BME280;593;53.184;8.216;2024-03-25T00:10:53;99944.88;;;8.52;100.00
1207;BME280;593;53.184;8.216;2024-03-25T00:13:19;99947.00;;;8.55;100.00
1207;BME280;593;53.184;8.216;2024-03-25T00:15:45;99955.44;;;8.53;100.00
1207;BME280;593;53.184;8.216;2024-03-25T00:18:10;99941.06;;;8.53;100.00
1207;BME280;593;53.184;8.216;2024-03-25T00:20:36;99941.06;;;8.53;100.00
1207;BME280;593;53.184;8.216;2024-03-25T00:23:02;99942.97;;;8.52;100.00
1207;BME280;593;53.184;8.216;2024-03-25T00:25:27;99941.63;;;8.50;100.00
1207;BME280;593;53.184;8.216;2024-03-25T00:27:53;99953.28;;;8.50;100.00
1207;BME280;593;53.184;8.216;2024-03-25T00:30:19;99956.28;;;8.49;100.00
1207;BME280;593;53.184;8.216;2024-03-25T00:32:44;99955.78;;;8.47;100.00
1207;BME280;593;53.184;8.216;2024-03-25T00:35:10;99958.75;;;8.45;100.00
1207;BME280;593;53.184;8.216;2024-03-25T00:37:36;99959.06;;;8.44;100.00
1207;BME280;593;53.184;8.216;2024-03-25T00:40:01;99968.25;;;8.43;100.00
1207;BME280;593;53.184;8.216;2024-03-25T00:42:27;99963.13;;;8.41;100.00
1207;BME280;593;53.184;8.216;2024-03-25T00:44:52;99966.94;;;8.40;100.00
1207;BME280;593;53.184;8.216;2024-03-25T00:47:18;99958.28;;;8.38;100.00
1207;BME280;593;53.184;8.216;2024-03-25T00:49:43;99948.53;;;8.37;100.00
1207;BME280;593;53.184;8.216;2024-03-25T00:52:08;99948.06;;;8.30;100.00
1207;BME280;593;53.184;8.216;2024-03-25T00:54:34;99955.63;;;8.33;100.00
1207;BME280;593;53.184;8.216;2024-03-25T00:56:59;99955.09;;;8.31;100.00
1207;BME280;593;53.184;8.216;2024-03-25T00:59:25;99952.13;;;8.27;100.00
1207;BME280;593;53.184;8.216;2024-03-25T01:01:50;99952.13;;;8.27;100.00
1207;BME280;593;53.184;8.216;2024-03-25T01:04:16;99939.47;;;8.18;100.00
1207;BME280;593;53.184;8.216;2024-03-25T01:06:42;99946.72;;;8.22;100.00
1207;BME280;593;53.184;8.216;2024-03-25T01:09:07;99953.25;;;8.21;100.00
1207;BME280;593;53.184;8.216;2024-03-25T01:11:33;99952.72;;;8.19;100.00
1207;BME280;593;53.184;8.216;2024-03-25T01:13:58;99947.88;;;8.16;100.00
1207;BME280;593;53.184;8.216;2024-03-25T01:16:24;99944.63;;;8.14;100.00
1207;BME280;593;53.184;8.216;2024-03-25T01:18:49;99940.94;;;8.05;100.00
1207;BME280;593;53.184;8.216;2024-03-25T01:21:15;99947.63;;;8.13;100.00
1207;BME280;593;53.184;8.216;2024-03-25T01:23:40;99948.19;;;8.10;100.00
1207;BME280;593;53.184;8.216;2024-03-25T01:26:06;99947.94;;;8.11;100.00
1207;BME280;593;53.184;8.216;2024-03-25T01:28:32;99944.97;;;8.08;100.00
1207;BME280;593;53.184;8.216;2024-03-25T01:30:57;99951.47;;;8.07;100.00
1207;BME280;593;53.184;8.216;2024-03-25T01:33:23;99948.00;;;8.01;100.00
1207;BME280;593;53.184;8.216;2024-03-25T01:35:48;99947.72;;;8.03;100.00
1207;BME280;593;53.184;8.216;2024-03-25T01:38:14;99955.28;;;8.06;100.00
1207;BME280;593;53.184;8.216;2024-03-25T01:40:39;99949.34;;;8.04;100.00
1207;BME280;593;53.184;8.216;2024-03-25T01:43:08;99961.78;;;8.05;100.00
1207;BME280;593;53.184;8.216;2024-03-25T01:45:34;99959.88;;;8.05;100.00
1207;BME280;593;53.184;8.216;2024-03-25T01:48:06;99952.31;;;8.02;100.00
1207;BME280;593;53.184;8.216;2024-03-25T01:50:37;99952.84;;;8.04;100.00
1207;BME280;593;53.184;8.216;2024-03-25T01:53:04;99964.50;;;8.05;100.00
1207;BME280;593;53.184;8.216;2024-03-25T01:55:30;99958.81;;;8.06;100.00
1207;BME280;593;53.184;8.216;2024-03-25T01:57:58;99964.78;;;8.03;100.00
1207;BME280;593;53.184;8.216;2024-03-25T02:00:24;99969.63;;;8.06;100.00
1207;BME280;593;53.184;8.216;2024-03-25T02:02:52;99968.00;;;8.05;100.00
1207;BME280;593;53.184;8.216;2024-03-25T02:05:18;99970.72;;;8.05;100.00
1207;BME280;593;53.184;8.216;2024-03-25T02:07:44;99975.84;;;8.07;100.00
1207;BME280;593;53.184;8.216;2024-03-25T02:10:11;99976.13;;;8.05;100.00
1207;BME280;593;53.184;8.216;2024-03-25T02:12:40;99972.63;;;8.05;100.00
1207;BME280;593;53.184;8.216;2024-03-25T02:15:07;99982.06;;;8.07;100.00
1207;BME280;593;53.184;8.216;2024-03-25T02:17:34;99981.25;;;8.07;100.00
1207;BME280;593;53.184;8.216;2024-03-25T02:20:00;99970.19;;;8.03;100.00
1207;BME280;593;53.184;8.216;2024-03-25T02:22:25;99979.66;;;8.06;100.00
1207;BME280;593;53.184;8.216;2024-03-25T02:24:53;99979.09;;;8.09;100.00
1207;BME280;593;53.184;8.216;2024-03-25T02:27:22;99986.94;;;8.10;100.00
1207;BME280;593;53.184;8.216;2024-03-25T02:29:47;99987.75;;;8.11;100.00
1207;BME280;593;53.184;8.216;2024-03-25T02:32:13;99979.66;;;8.06;100.00
1207;BME280;593;53.184;8.216;2024-03-25T02:34:46;99985.84;;;8.11;100.00
1207;BME280;593;53.184;8.216;2024-03-25T02:37:11;99991.81;;;8.08;100.00
1207;BME280;593;53.184;8.216;2024-03-25T02:39:37;99993.72;;;8.08;100.00
1207;BME280;593;53.184;8.216;2024-03-25T02:42:03;99989.38;;;8.07;100.00
1207;BME280;593;53.184;8.216;2024-03-25T02:44:30;99990.19;;;8.07;100.00
1207;BME280;593;53.184;8.216;2024-03-25T02:46:56;99991.56;;;8.05;100.00
1207;BME280;593;53.184;8.216;2024-03-25T02:49:22;99991.03;;;8.03;100.00
1207;BME280;593;53.184;8.216;2024-03-25T02:51:48;99994.06;;;8.01;100.00
1207;BME280;593;53.184;8.216;2024-03-25T02:54:13;99998.66;;;8.01;100.00
1207;BME280;593;53.184;8.216;2024-03-25T02:56:40;100004.09;;;7.96;100.00
1207;BME280;593;53.184;8.216;2024-03-25T02:59:05;100007.84;;;8.00;100.00
1207;BME280;593;53.184;8.216;2024-03-25T03:01:31;100010.03;;;7.98;100.00
1207;BME280;593;53.184;8.216;2024-03-25T03:03:56;100005.69;;;7.97;100.00
1207;BME280;593;53.184;8.216;2024-03-25T03:06:21;100008.41;;;7.97;100.00
1207;BME280;593;53.184;8.216;2024-03-25T03:08:48;100011.16;;;7.92;100.00
1207;BME280;593;53.184;8.216;2024-03-25T03:11:13;100019.00;;;7.93;100.00
1207;BME280;593;53.184;8.216;2024-03-25T03:13:38;100023.88;;;7.96;100.00
1207;BME280;593;53.184;8.216;2024-03-25T03:16:04;100028.47;;;7.96;100.00
1207;BME280;593;53.184;8.216;2024-03-25T03:18:30;100029.28;;;7.96;100.00
1207;BME280;593;53.184;8.216;2024-03-25T03:20:55;100022.25;;;7.95;100.00
1207;BME280;593;53.184;8.216;2024-03-25T03:23:24;100028.72;;;7.94;100.00
1207;BME280;593;53.184;8.216;2024-03-25T03:25:50;100029.53;;;7.95;100.00
1207;BME280;593;53.184;8.216;2024-03-25T03:28:17;100024.69;;;7.92;100.00
1207;BME280;593;53.184;8.216;2024-03-25T03:30:42;100024.13;;;7.95;100.00
1207;BME280;593;53.184;8.216;2024-03-25T03:33:08;100021.41;;;7.95;100.00
1207;BME280;593;53.184;8.216;2024-03-25T03:35:34;100021.72;;;7.93;100.00
1207;BME280;593;53.184;8.216;2024-03-25T03:37:59;100030.66;;;7.94;100.00
1207;BME280;593;53.184;8.216;2024-03-25T03:40:24;100027.69;;;7.90;100.00
1207;BME280;593;53.184;8.216;2024-03-25T03:42:50;100023.34;;;7.89;100.00
1207;BME280;593;53.184;8.216;2024-03-25T03:45:15;100036.84;;;7.94;100.00
1207;BME280;593;53.184;8.216;2024-03-25T03:47:41;100035.25;;;7.93;100.00
1207;BME280;593;53.184;8.216;2024-03-25T03:50:06;100038.22;;;7.92;100.00
1207;BME280;593;53.184;8.216;2024-03-25T03:52:33;100030.91;;;7.92;100.00
1207;BME280;593;53.184;8.216;2024-03-25T03:54:58;100036.06;;;7.94;100.00
1207;BME280;593;53.184;8.216;2024-03-25T03:57:23;100042.56;;;7.93;100.00
1207;BME280;593;53.184;8.216;2024-03-25T03:59:51;100035.00;;;7.90;100.00
1207;BME280;593;53.184;8.216;2024-03-25T04:02:16;100045.28;;;7.93;100.00
1207;BME280;593;53.184;8.216;2024-03-25T04:04:42;100046.91;;;7.94;100.00
1207;BME280;593;53.184;8.216;2024-03-25T04:07:07;100058.81;;;7.93;100.00
1207;BME280;593;53.184;8.216;2024-03-25T04:09:33;100066.41;;;7.91;100.00
1207;BME280;593;53.184;8.216;2024-03-25T04:11:58;100060.69;;;7.92;100.00
1207;BME280;593;53.184;8.216;2024-03-25T04:14:23;100053.94;;;7.90;100.00
1207;BME280;593;53.184;8.216;2024-03-25T04:16:49;100034.75;;;7.86;100.00
1207;BME280;593;53.184;8.216;2024-03-25T04:19:23;100039.34;;;7.91;100.00
1207;BME280;593;53.184;8.216;2024-03-25T04:21:49;100032.09;;;7.81;100.00
1207;BME280;593;53.184;8.216;2024-03-25T04:24:14;100050.16;;;7.91;100.00
1207;BME280;593;53.184;8.216;2024-03-25T04:26:40;100044.75;;;7.91;100.00
1207;BME280;593;53.184;8.216;2024-03-25T04:29:05;100046.63;;;7.90;100.00
1207;BME280;593;53.184;8.216;2024-03-25T04:31:31;100055.56;;;7.91;100.00
1207;BME280;593;53.184;8.216;2024-03-25T04:33:56;100054.75;;;7.90;100.00
1207;BME280;593;53.184;8.216;2024-03-25T04:36:22;100059.09;;;7.91;100.00
1207;BME280;593;53.184;8.216;2024-03-25T04:38:47;100059.09;;;7.91;100.00
1207;BME280;593;53.184;8.216;2024-03-25T04:41:12;100066.66;;;7.89;100.00
1207;BME280;593;53.184;8.216;2024-03-25T04:43:38;100069.13;;;7.91;100.00
1207;BME280;593;53.184;8.216;2024-03-25T04:46:03;100071.28;;;7.89;100.00
1207;BME280;593;53.184;8.216;2024-03-25T04:48:29;100068.59;;;7.89;100.00
1207;BME280;593;53.184;8.216;2024-03-25T04:50:55;100077.78;;;7.88;100.00
1207;BME280;593;53.184;8.216;2024-03-25T04:53:20;100079.16;;;7.85;100.00
1207;BME280;593;53.184;8.216;2024-03-25T04:55:46;100084.84;;;7.84;100.00
1207;BME280;593;53.184;8.216;2024-03-25T04:58:11;100087.00;;;7.82;100.00
1207;BME280;593;53.184;8.216;2024-03-25T05:00:36;100089.47;;;7.78;100.00
1207;BME280;593;53.184;8.216;2024-03-25T05:03:02;100098.41;;;7.79;100.00
1207;BME280;593;53.184;8.216;2024-03-25T05:05:27;100098.94;;;7.81;100.00
1207;BME280;593;53.184;8.216;2024-03-25T05:07:53;100108.13;;;7.80;100.00
1207;BME280;593;53.184;8.216;2024-03-25T05:10:19;100110.59;;;7.81;100.00
1207;BME280;593;53.184;8.216;2024-03-25T05:12:45;100112.47;;;7.81;100.00
1207;BME280;593;53.184;8.216;2024-03-25T05:15:12;100108.13;;;7.80;100.00
1207;BME280;593;53.184;8.216;2024-03-25T05:17:38;100104.63;;;7.79;100.00
1207;BME280;593;53.184;8.216;2024-03-25T05:20:03;100105.44;;;7.80;100.00
1207;BME280;593;53.184;8.216;2024-03-25T05:22:30;100098.97;;;7.75;100.00
1207;BME280;593;53.184;8.216;2024-03-25T05:24:57;100105.19;;;7.76;100.00
1207;BME280;593;53.184;8.216;2024-03-25T05:27:22;100098.69;;;7.72;100.00
1207;BME280;593;53.184;8.216;2024-03-25T05:29:49;100101.16;;;7.73;100.00
1207;BME280;593;53.184;8.216;2024-03-25T05:32:14;100108.16;;;7.74;100.00
1207;BME280;593;53.184;8.216;2024-03-25T05:34:41;100106.81;;;7.72;100.00
1207;BME280;593;53.184;8.216;2024-03-25T05:37:07;100108.44;;;7.73;100.00
1207;BME280;593;53.184;8.216;2024-03-25T05:39:32;100112.81;;;7.69;100.00
1207;BME280;593;53.184;8.216;2024-03-25T05:41:58;100114.69;;;7.73;100.00
1207;BME280;593;53.184;8.216;2024-03-25T05:44:23;100113.34;;;7.71;100.00
1207;BME280;593;53.184;8.216;2024-03-25T05:46:48;100119.56;;;7.71;100.00
1207;BME280;593;53.184;8.216;2024-03-25T05:49:14;100131.47;;;7.70;100.00
1207;BME280;593;53.184;8.216;2024-03-25T05:51:39;100130.38;;;7.71;100.00
1207;BME280;593;53.184;8.216;2024-03-25T05:54:05;100126.34;;;7.69;100.00
1207;BME280;593;53.184;8.216;2024-03-25T05:56:30;100126.88;;;7.71;100.00
1207;BME280;593;53.184;8.216;2024-03-25T05:58:59;100129.56;;;7.71;100.00
1207;BME280;593;53.184;8.216;2024-03-25T06:01:24;100135.81;;;7.71;100.00
1207;BME280;593;53.184;8.216;2024-03-25T06:03:51;100140.41;;;7.71;100.00
1207;BME280;593;53.184;8.216;2024-03-25T06:06:16;100145.81;;;7.71;100.00
1207;BME280;593;53.184;8.216;2024-03-25T06:08:42;100146.88;;;7.70;100.00
1207;BME280;593;53.184;8.216;2024-03-25T06:11:08;100150.69;;;7.74;100.00
1207;BME280;593;53.184;8.216;2024-03-25T06:13:33;100144.44;;;7.73;100.00
1207;BME280;593;53.184;8.216;2024-03-25T06:15:59;100141.75;;;7.73;100.00
1207;BME280;593;53.184;8.216;2024-03-25T06:18:24;100140.63;;;7.74;100.00
1207;BME280;593;53.184;8.216;2024-03-25T06:20:49;100147.41;;;7.72;100.00
1207;BME280;593;53.184;8.216;2024-03-25T06:23:26;100156.88;;;7.74;100.00
1207;BME280;593;53.184;8.216;2024-03-25T06:25:53;100154.44;;;7.78;100.00
1207;BME280;593;53.184;8.216;2024-03-25T06:28:19;100153.63;;;7.78;100.00
1207;BME280;593;53.184;8.216;2024-03-25T06:30:46;100150.63;;;7.79;100.00
1207;BME280;593;53.184;8.216;2024-03-25T06:33:30;100141.16;;;7.76;100.00
1207;BME280;593;53.184;8.216;2024-03-25T06:36:15;100151.44;;;7.80;100.00
1207;BME280;593;53.184;8.216;2024-03-25T06:38:41;100141.44;;;7.80;100.00
1207;BME280;593;53.184;8.216;2024-03-25T06:41:06;100153.31;;;7.84;100.00
1207;BME280;593;53.184;8.216;2024-03-25T06:43:32;100150.06;;;7.87;100.00
1207;BME280;593;53.184;8.216;2024-03-25T06:45:57;100147.09;;;7.89;100.00
1207;BME280;593;53.184;8.216;2024-03-25T06:48:23;100156.00;;;7.89;100.00
1207;BME280;593;53.184;8.216;2024-03-25T06:50:58;100150.34;;;7.91;100.00
1207;BME280;593;53.184;8.216;2024-03-25T06:53:24;100157.09;;;7.93;100.00
1207;BME280;593;53.184;8.216;2024-03-25T06:55:58;100157.91;;;7.94;100.00
1207;BME280;593;53.184;8.216;2024-03-25T06:58:24;100163.59;;;7.92;100.00
1207;BME280;593;53.184;8.216;2024-03-25T07:00:50;100168.19;;;7.92;100.00
1207;BME280;593;53.184;8.216;2024-03-25T07:03:16;100171.16;;;7.95;100.00
1207;BME280;593;53.184;8.216;2024-03-25T07:05:50;100180.34;;;7.99;100.00
1207;BME280;593;53.184;8.216;2024-03-25T07:08:18;100182.25;;;7.99;100.00
1207;BME280;593;53.184;8.216;2024-03-25T07:10:45;100183.34;;;7.98;100.00
1207;BME280;593;53.184;8.216;2024-03-25T07:13:11;100189.81;;;8.02;100.00
1207;BME280;593;53.184;8.216;2024-03-25T07:15:36;100200.91;;;8.05;100.00
1207;BME280;593;53.184;8.216;2024-03-25T07:18:02;100187.06;;;8.07;100.00
1207;BME280;593;53.184;8.216;2024-03-25T07:20:28;100196.81;;;8.13;100.00
1207;BME280;593;53.184;8.216;2024-03-25T07:22:54;100202.22;;;8.13;100.00
1207;BME280;593;53.184;8.216;2024-03-25T07:25:24;100193.56;;;8.11;100.00
1207;BME280;593;53.184;8.216;2024-03-25T07:27:49;100186.47;;;8.20;100.00
1207;BME280;593;53.184;8.216;2024-03-25T07:30:15;100203.25;;;8.22;100.00
1207;BME280;593;53.184;8.216;2024-03-25T07:32:41;100197.84;;;8.22;100.00
1207;BME280;593;53.184;8.216;2024-03-25T07:35:06;100204.34;;;8.31;100.00
1207;BME280;593;53.184;8.216;2024-03-25T07:37:34;100202.47;;;8.31;100.00
1207;BME280;593;53.184;8.216;2024-03-25T07:39:59;100201.88;;;8.34;100.00
1207;BME280;593;53.184;8.216;2024-03-25T07:42:25;100194.81;;;8.38;100.00
1207;BME280;593;53.184;8.216;2024-03-25T07:44:50;100195.66;;;8.39;100.00
1207;BME280;593;53.184;8.216;2024-03-25T07:47:15;100194.53;;;8.40;100.00
1207;BME280;593;53.184;8.216;2024-03-25T07:49:41;100198.88;;;8.41;100.00
1207;BME280;593;53.184;8.216;2024-03-25T07:52:06;100198.03;;;8.46;100.00
1207;BME280;593;53.184;8.216;2024-03-25T07:54:32;100193.66;;;8.50;100.00
1207;BME280;593;53.184;8.216;2024-03-25T07:56:57;100206.09;;;8.56;100.00
1207;BME280;593;53.184;8.216;2024-03-25T07:59:23;100206.91;;;8.56;100.00
1207;BME280;593;53.184;8.216;2024-03-25T08:01:48;100212.56;;;8.60;100.00
1207;BME280;593;53.184;8.216;2024-03-25T08:04:14;100215.25;;;8.65;100.00
1207;BME280;593;53.184;8.216;2024-03-25T08:06:39;100207.91;;;8.70;100.00
1207;BME280;593;53.184;8.216;2024-03-25T08:09:04;100208.16;;;8.74;100.00
1207;BME280;593;53.184;8.216;2024-03-25T08:11:31;100203.28;;;8.76;100.00
1207;BME280;593;53.184;8.216;2024-03-25T08:13:57;100217.84;;;8.85;100.00
1207;BME280;593;53.184;8.216;2024-03-25T08:16:22;100218.63;;;8.90;100.00
1207;BME280;593;53.184;8.216;2024-03-25T08:18:47;100208.03;;;8.94;100.00
1207;BME280;593;53.184;8.216;2024-03-25T08:21:13;100206.06;;;8.99;100.00
1207;BME280;593;53.184;8.216;2024-03-25T08:23:38;100205.50;;;9.02;100.00
1207;BME280;593;53.184;8.216;2024-03-25T08:26:04;100208.72;;;9.04;100.00
1207;BME280;593;53.184;8.216;2024-03-25T08:28:29;100205.75;;;9.06;100.00
1207;BME280;593;53.184;8.216;2024-03-25T08:30:54;100210.03;;;9.12;100.00
1207;BME280;593;53.184;8.216;2024-03-25T08:33:20;100210.00;;;9.17;100.00
1207;BME280;593;53.184;8.216;2024-03-25T08:35:45;100214.59;;;9.22;100.00
1207;BME280;593;53.184;8.216;2024-03-25T08:38:11;100208.63;;;9.20;100.00
1207;BME280;593;53.184;8.216;2024-03-25T08:40:36;100217.00;;;9.23;100.00
1207;BME280;593;53.184;8.216;2024-03-25T08:43:02;100223.47;;;9.27;100.00
1207;BME280;593;53.184;8.216;2024-03-25T08:45:27;100221.88;;;9.26;100.00
1207;BME280;593;53.184;8.216;2024-03-25T08:47:52;100225.09;;;9.28;100.00
1207;BME280;593;53.184;8.216;2024-03-25T08:50:18;100216.16;;;9.28;100.00
1207;BME280;593;53.184;8.216;2024-03-25T08:52:43;100223.44;;;9.32;99.68
1207;BME280;593;53.184;8.216;2024-03-25T08:55:12;100223.97;;;9.34;100.00
1207;BME280;593;53.184;8.216;2024-03-25T08:57:37;100229.63;;;9.38;99.44
1207;BME280;593;53.184;8.216;2024-03-25T09:00:03;100223.94;;;9.39;99.21
1207;BME280;593;53.184;8.216;2024-03-25T09:02:29;100227.16;;;9.41;98.62
1207;BME280;593;53.184;8.216;2024-03-25T09:04:54;100229.31;;;9.44;99.20
1207;BME280;593;53.184;8.216;2024-03-25T09:07:20;100229.53;;;9.48;97.41
1207;BME280;593;53.184;8.216;2024-03-25T09:09:45;100233.34;;;9.47;98.00
1207;BME280;593;53.184;8.216;2024-03-25T09:12:29;100233.06;;;9.48;96.70
1207;BME280;593;53.184;8.216;2024-03-25T09:14:55;100229.53;;;9.48;95.46
1207;BME280;593;53.184;8.216;2024-03-25T09:17:20;100232.72;;;9.55;95.61
1207;BME280;593;53.184;8.216;2024-03-25T09:19:48;100223.50;;;9.56;94.48
1207;BME280;593;53.184;8.216;2024-03-25T09:22:13;100221.84;;;9.55;92.86
1207;BME280;593;53.184;8.216;2024-03-25T09:24:42;100222.06;;;9.63;93.33
1207;BME280;593;53.184;8.216;2024-03-25T09:27:07;100233.13;;;9.67;92.70
1207;BME280;593;53.184;8.216;2024-03-25T09:29:32;100237.19;;;9.69;92.74
1207;BME280;593;53.184;8.216;2024-03-25T09:31:58;100233.13;;;9.67;92.68
1207;BME280;593;53.184;8.216;2024-03-25T09:34:23;100243.69;;;9.74;92.02
1207;BME280;593;53.184;8.216;2024-03-25T09:36:50;100237.94;;;9.75;91.92
1207;BME280;593;53.184;8.216;2024-03-25T09:39:15;100236.88;;;9.76;91.86
1207;BME280;593;53.184;8.216;2024-03-25T09:41:42;100233.84;;;9.78;92.00
1207;BME280;593;53.184;8.216;2024-03-25T09:44:08;100241.38;;;9.86;91.20
1207;BME280;593;53.184;8.216;2024-03-25T09:46:35;100228.31;;;9.88;91.48
1207;BME280;593;53.184;8.216;2024-03-25T09:49:01;100239.69;;;9.90;90.71
1207;BME280;593;53.184;8.216;2024-03-25T09:51:31;100236.41;;;9.93;90.79
1207;BME280;593;53.184;8.216;2024-03-25T09:53:56;100231.03;;;9.88;90.30
1207;BME280;593;53.184;8.216;2024-03-25T09:56:22;100249.41;;;9.96;90.68
1207;BME280;593;53.184;8.216;2024-03-25T09:58:48;100249.66;;;9.99;89.86
1207;BME280;593;53.184;8.216;2024-03-25T10:01:14;100240.66;;;10.04;89.39
1207;BME280;593;53.184;8.216;2024-03-25T10:03:39;100251.72;;;10.07;89.45
1207;BME280;593;53.184;8.216;2024-03-25T10:06:05;100239.25;;;10.06;87.90
1207;BME280;593;53.184;8.216;2024-03-25T10:08:31;100234.09;;;10.05;87.65
1207;BME280;593;53.184;8.216;2024-03-25T10:10:57;100246.50;;;10.16;86.69
1207;BME280;593;53.184;8.216;2024-03-25T10:13:23;100241.38;;;10.14;86.20
1207;BME280;593;53.184;8.216;2024-03-25T10:15:49;100242.09;;;10.20;85.77
1207;BME280;593;53.184;8.216;2024-03-25T10:18:15;100247.25;;;10.21;85.03
1207;BME280;593;53.184;8.216;2024-03-25T10:20:53;100238.53;;;10.24;84.21
1207;BME280;593;53.184;8.216;2024-03-25T10:23:25;100244.47;;;10.26;83.59
1207;BME280;593;53.184;8.216;2024-03-25T10:25:54;100243.59;;;10.31;84.59
1207;BME280;593;53.184;8.216;2024-03-25T10:28:20;100238.97;;;10.32;84.73
1207;BME280;593;53.184;8.216;2024-03-25T10:30:45;100251.19;;;10.34;84.97
1207;BME280;593;53.184;8.216;2024-03-25T10:33:11;100250.88;;;10.36;84.94
1207;BME280;593;53.184;8.216;2024-03-25T10:35:38;100251.13;;;10.39;84.28
1207;BME280;593;53.184;8.216;2024-03-25T10:38:06;100257.88;;;10.42;84.94
1207;BME280;593;53.184;8.216;2024-03-25T10:40:39;100252.97;;;10.44;84.43
1207;BME280;593;53.184;8.216;2024-03-25T10:43:09;100248.84;;;10.46;83.43
1207;BME280;593;53.184;8.216;2024-03-25T10:45:46;100252.38;;;10.47;82.43
1207;BME280;593;53.184;8.216;2024-03-25T10:48:19;100252.91;;;10.49;82.02
1207;BME280;593;53.184;8.216;2024-03-25T10:50:47;100252.59;;;10.50;81.99
1207;BME280;593;53.184;8.216;2024-03-25T10:53:14;100247.09;;;10.55;82.65
1207;BME280;593;53.184;8.216;2024-03-25T10:55:43;100243.47;;;10.60;83.27
1207;BME280;593;53.184;8.216;2024-03-25T10:58:10;100254.91;;;10.62;83.42
1207;BME280;593;53.184;8.216;2024-03-25T11:00:36;100247.25;;;10.64;83.67
1207;BME280;593;53.184;8.216;2024-03-25T11:03:02;100244.75;;;10.67;82.62
1207;BME280;593;53.184;8.216;2024-03-25T11:05:28;100243.66;;;10.68;81.97
1207;BME280;593;53.184;8.216;2024-03-25T11:07:54;100244.41;;;10.74;80.71
1207;BME280;593;53.184;8.216;2024-03-25T11:10:29;100243.81;;;10.77;81.08
1207;BME280;593;53.184;8.216;2024-03-25T11:12:54;100236.66;;;10.81;81.37
1207;BME280;593;53.184;8.216;2024-03-25T11:15:20;100232.88;;;10.82;80.90
1207;BME280;593;53.184;8.216;2024-03-25T11:17:50;100230.84;;;10.87;78.65
1207;BME280;593;53.184;8.216;2024-03-25T11:20:16;100227.28;;;10.92;78.42
1207;BME280;593;53.184;8.216;2024-03-25T11:22:52;100227.47;;;10.95;78.02
1207;BME280;593;53.184;8.216;2024-03-25T11:25:18;100223.66;;;10.97;76.92
1207;BME280;593;53.184;8.216;2024-03-25T11:27:45;100230.41;;;10.99;77.35
1207;BME280;593;53.184;8.216;2024-03-25T11:30:13;100226.31;;;11.02;77.88
1207;BME280;593;53.184;8.216;2024-03-25T11:32:52;100211.88;;;11.01;79.76
1207;BME280;593;53.184;8.216;2024-03-25T11:35:18;100229.13;;;11.10;81.29
1207;BME280;593;53.184;8.216;2024-03-25T11:37:44;100232.41;;;11.12;81.94
1207;BME280;593;53.184;8.216;2024-03-25T11:40:10;100226.97;;;11.12;82.03
1207;BME280;593;53.184;8.216;2024-03-25T11:42:42;100227.97;;;11.16;83.20
1207;BME280;593;53.184;8.216;2024-03-25T11:45:18;100223.84;;;11.19;84.17
1207;BME280;593;53.184;8.216;2024-03-25T11:47:45;100211.63;;;11.16;85.09
1207;BME280;593;53.184;8.216;2024-03-25T11:50:16;100218.91;;;11.21;85.47
1207;BME280;593;53.184;8.216;2024-03-25T11:52:42;100208.00;;;11.21;85.89
1207;BME280;593;53.184;8.216;2024-03-25T11:55:08;100203.88;;;11.23;86.49
1207;BME280;593;53.184;8.216;2024-03-25T11:57:35;100210.66;;;11.26;87.82
1207;BME280;593;53.184;8.216;2024-03-25T12:00:01;100208.44;;;11.28;88.12
1207;BME280;593;53.184;8.216;2024-03-25T12:02:28;100201.59;;;11.30;89.54
1207;BME280;593;53.184;8.216;2024-03-25T12:04:53;100201.81;;;11.34;90.52
1207;BME280;593;53.184;8.216;2024-03-25T12:07:19;100197.38;;;11.38;91.02
1207;BME280;593;53.184;8.216;2024-03-25T12:09:44;100198.19;;;11.38;90.07
1207;BME280;593;53.184;8.216;2024-03-25T12:12:28;100195.47;;;11.38;89.42
1207;BME280;593;53.184;8.216;2024-03-25T12:14:54;100192.16;;;11.41;88.94
1207;BME280;593;53.184;8.216;2024-03-25T12:17:21;100189.94;;;11.43;88.38
1207;BME280;593;53.184;8.216;2024-03-25T12:20:02;100184.38;;;11.48;90.10
1207;BME280;593;53.184;8.216;2024-03-25T12:22:30;100172.41;;;11.49;90.71
1207;BME280;593;53.184;8.216;2024-03-25T12:24:59;100180.25;;;11.51;90.66
1207;BME280;593;53.184;8.216;2024-03-25T12:27:28;100174.00;;;11.50;89.55
1207;BME280;593;53.184;8.216;2024-03-25T12:30:04;100163.09;;;11.50;88.85
1207;BME280;593;53.184;8.216;2024-03-25T12:32:44;100168.56;;;11.50;89.67
1207;BME280;593;53.184;8.216;2024-03-25T12:35:12;100162.81;;;11.52;89.85
1207;BME280;593;53.184;8.216;2024-03-25T12:37:39;100162.00;;;11.51;90.34
1207;BME280;593;53.184;8.216;2024-03-25T12:40:06;100159.28;;;11.51;91.13
1207;BME280;593;53.184;8.216;2024-03-25T12:42:33;100147.56;;;11.51;91.27
1207;BME280;593;53.184;8.216;2024-03-25T12:44:59;100152.44;;;11.54;90.47
1207;BME280;593;53.184;8.216;2024-03-25T12:47:25;100151.84;;;11.57;89.87
1207;BME280;593;53.184;8.216;2024-03-25T12:49:51;100154.75;;;11.60;90.41
1207;BME280;593;53.184;8.216;2024-03-25T12:52:16;100154.16;;;11.64;89.65
1207;BME280;593;53.184;8.216;2024-03-25T12:54:41;100153.84;;;11.65;89.99
1207;BME280;593;53.184;8.216;2024-03-25T12:57:07;100133.88;;;11.56;89.18
1207;BME280;593;53.184;8.216;2024-03-25T12:59:33;100149.78;;;11.63;88.88
1207;BME280;593;53.184;8.216;2024-03-25T13:01:59;100148.38;;;11.65;88.61
1207;BME280;593;53.184;8.216;2024-03-25T13:04:25;100148.69;;;11.64;88.22
1207;BME280;593;53.184;8.216;2024-03-25T13:06:51;100140.97;;;11.71;87.76
1207;BME280;593;53.184;8.216;2024-03-25T13:09:17;100142.59;;;11.72;87.77
1207;BME280;593;53.184;8.216;2024-03-25T13:11:45;100151.25;;;11.74;86.41
1207;BME280;593;53.184;8.216;2024-03-25T13:14:12;100133.91;;;11.70;86.63
1207;BME280;593;53.184;8.216;2024-03-25T13:16:38;100142.78;;;11.75;85.64
1207;BME280;593;53.184;8.216;2024-03-25T13:19:03;100144.59;;;11.80;86.94
1207;BME280;593;53.184;8.216;2024-03-25T13:21:29;100127.94;;;11.81;89.03